KNMI Weerbulletins

Hier vind u de KMNI verwachtingen en de waarnemingen

Bron: KNMI website
Laatste update op 13-05-2021 om 20:20
ZCZC
FBNL50 EHDB 131448
WEERBULLETIN VOOR DE LUCHTVAART
.
GELDIG 131500/132100 UTC
.
SITUATIE: EEN ZWAKKE NOORDOOSTELIJKE STROMING VOERT VAN OORSPRONG
MARITIEM POLAIRE LUCHT AAN. EEN WNW-OZO GEORIENTEERDE OCCLUSIE LIGT
BOVEN HET UITERSTE ZUIDEN, TREKT LANGZAAM NOORDWAARTS EN KOMT AAN HET
EINDE VAN DE PERIODE TER HOOGTE VAN DE GROTE RIVIEREN TE LIGGEN. DE
OPBOUW IS TIJDENS DE EERSTE HELFT VAN DE PERIODE ONSTABIEL TOT CA.
7000 VT, BIJ DE OCCLUSIE EN LOKAAL IN HET MIDDEN TOT BOVEN FL100. TEN
ZUIDEN VAN DE OCCLUSIE WORDT DE STROMING (ZUID)WESTELIJK.
.
SIGNIFICANT WEER: NABIJ DE OCCLUSIE ENKELE (INGEBEDDE) LICHTE TOT
MATIGE REGENBUIEN MET KANS OP ONWEER EN/OF HAGEL. IN HET MIDDEN EEN
ENKELE GEISOLEERDE LICHTE TOT MATIGE REGENBUI, HIERBIJ IS ONWEER NIET
GEHEEL UITGESLOTEN, IN DE EERSTE HELFT VAN DE PERIODE GROTENDEELS
OPLOSSEND.
IN DE TWEEDE HELFT VAN DE PERIODE LANGS DE NOORDKUST KANS OP NEVEL.
.
WIND: NOORD TOT NOORDOOST 5-10 KN, LANGS DE KUST 10-15 KN. IN HET
OOSTEN EN ZUIDOOSTEN OP MEERDERE PLAATSEN ZWAK EN VERANDERLIJK. BIJ
EEN BUI KANS OP UITSCHIETERS VAN 20-25 KN. TEN ZUIDEN VAN DE OCCLUSIE
ZUIDWESTELIJK 5-10 KN, AFNEMEND NAAR 2-5 KN.
.
BEWOLKING: FEW/SCT CU 3500-4500 VT, TOPPEN TOT 7000 VT, IN DE TWEEDE
HELFT VAN DE PERIODE OPLOSSEND. IN HET MIDDEN BIJ EEN BUI FEW/SCT CB
3500 VT, TOPPEN BOVEN FL100. LANGS DE NOORDKUST BKN ST 500-1000 VT ,
AAN HET EINDE VAN DE PERIODE OVER HET NOORDEN UITBREIDEND, TOPPEN TOT
1000 VT. NABIJ DE OCCLUSIE BKN SC/CU 3000-5000 VT, TOPPEN TOT 7000 VT
EN BIJ EEN BUI FEW/SCT (INGEBEDDE) CB 3500 VT, TOPPEN TOT BOVEN
FL100.
.
ZICHT: MEER DAN 10 KM. IN EEN BUI 5-8 KM, LOKAAL 3-5 KM. IN HET
NOORDELIJK KUSTGEBIED IN NEVEL 1500-5000 M.
.
NULGRADEN NIVEAU: FL060-FL070.
.
HOOGTEWINDEN EN TEMPERATUREN:
       15 UTC:    21 UTC:
0500VT 020/10 +17 040/10-15 +13
1500VT 040/10 +14 050/10    +11
3000VT 040/05-10 +09 VRB/05 +07
FL 050 VRB/05 +04 VRB/05 +03
FL 100 180/10 -07 160/15 -07
TEN ZUIDEN VAN DE OCCLUSIE ONDER 3000VT 210/10-20, OM 21 UTC
260/05-10
.
THERMIEK: MATIG. NABIJ DE OCCLUSIE VERSTOORD DOOR BUIEN EN AFGEZWAKT
T.G.V. AFSCHERMING DOOR BEWOLKING. UITDOVEND ROND 17:45 UTC.
.
VOORUITZICHTEN VOOR MORGEN: DE W-O GEORIENTEERDE OCCLUSIE LIGT
AANVANKELIJK BOVEN HET MIDDEN, BEWEEGT IETS NOORDWAARTS EN NEEMT IN
ACTIVITEIT AF. TEN NOORDEN VAN DE OCCLUSIE AANVANKELIJK KANS OP ST EN
NEVEL. LANGS DE KUST KUNNEN NEVEL EN ST HARDNEKKIG ZIJN. TEN ZUIDEN
VAN DE OCCLUSIE AANVANKELIJK LOKAAL EEN MISTBANK EN VERDER VANAF DE
MIDDAG ENKELE GEISOLEERDE LICHTE TOT MATIGE REGENBUIEN, MET KANS OP
ONWEER EN HAGEL.
.
DAGLICHTPERIODE: 03.34 TOT 19.40 UTC.=
NNNN
Bron: KNMI website
Laatste update op 13-05-2021 om 20:20
ZCZC
FC131700 EHKD     DE KOOY/DE KOOY   NLD   1 m.
TAF EHKD 131601Z 1317/1405 03012KT 9999 FEW007
    BECMG 1317/1319 BKN006
    PROB40 1318/1405 4500 BR BKN003
    BECMG 1323/1401 01006KT=
ZCZC
FC131700 EHGR     GILZE-RIJEN/GILZE-RIJEN   NLD   14 m.
TAF EHGR 131700Z NIL=
ZCZC
FC131700 EHLW     LEEUWARDEN/LEEUWARDEN   NLD   1 m.
TAF EHLW 131622Z 1317/1405 03012KT 9999 FEW007
    BECMG 1317/1319 BKN006
    PROB40 1318/1405 4500 BR BKN003
    BECMG 1323/1401 01006KT=
ZCZC
FC131700 EHVK     VOLKEL/VOLKEL   NLD   21 m.
TAF EHVK 131633Z 1317/1405 27005KT CAVOK
    PROB30 TEMPO 1317/1320 4000 SHRA TSRAGR FEW015 FEW025CB
    BKN030
    BECMG 1320/1322 VRB02KT
    PROB40 1322/1405 3500 BR MIFG=
ZCZC
FC131700 EHWO     WOENSDRECHT/WOENSDRECHT   NLD   19 m.
TAF EHWO 131700Z NIL=
ZCZC
FT131700 EHLE     LELYSTAD/LELYSTAD   NLD   -3 m.
TAF EHLE 131720Z 1318/1424 03008KT 9999 SCT030
    BECMG 1401/1404 6000 BKN006
    BECMG 1406/1409 9999 BKN012
    PROB30 TEMPO 1406/1411 7000 -SHRA FEW025CB
    BECMG 1409/1412 34010KT SCT025
    BECMG 1419/1422 03005KT=
ZCZC
FT131700 EHRD     ROTTERDAM/THE HAGUE AIRPORT   NLD   -5 m.
TAF EHRD 131719Z 1318/1424 24007KT 9999 SCT030
    PROB40 TEMPO 1318/1418 7000 -SHRA FEW025CB BKN030
    BECMG 1403/1406 02005KT 6000 BKN006
    PROB30 1403/1406 2000 BR BCFG
    BECMG 1408/1411 9999 BKN014
    BECMG 1411/1414 SCT025=
ZCZC
FT131700 EHGG     GRONINGEN/EELDE   NLD   5 m.
TAF EHGG 131715Z 1318/1424 02009KT CAVOK
    BECMG 1319/1322 6000 BKN006
    PROB40 1320/1406 3000 BR BKN003
    BECMG 1406/1409 9999 SCT020
    BECMG 1412/1415 32010KT
    BECMG 1417/1420 35005KT=
ZCZC
FT131700 EHBK     MAASTRICHT/MAASTRICHT-AACHEN   NLD   114 m.
TAF EHBK 131716Z 1318/1424 25009KT 9999 SCT030
    TEMPO 1411/1420 6000 SHRA FEW030CB
    PROB40 TEMPO 1411/1418 25015G25KT 4000 TSRA=
ZCZC
FT131700 EHAM CCA AMSTERDAM/SCHIPHOL   NLD   -3 m.
TAF COR EHAM 131735Z 1318/1424 02008KT 9999 SCT030
    PROB40 TEMPO 1318/1321 21015G25KT 4500 SHRA SCT025CB
    BKN030
    PROB30 TEMPO 1321/1411 7000 -SHRA FEW030CB
    BECMG 1401/1404 6000 BKN006
    BECMG 1406/1409 9999 BKN012
    BECMG 1409/1412 SCT025=
ZCZC
FT131700 EHEH RRA EINDHOVEN/EINDHOVEN   NLD   22 m.
TAF EHEH 131754Z 1318/1424 27005KT CAVOK
    PROB30 TEMPO 1318/1320 FEW040CB
    BECMG 1323/1401 4000 BR MIFG
    PROB40 1401/1406 0500 FG BCFG
    BECMG 1406/1408 26005KT 9999 NSW
    TEMPO 1411/1418 4000 SHRA SCT030CB BKN040
    PROB40 TEMPO 1412/1417 VRB08G20KT 3500 SHRA TSRAGR SCT025CB
    BKN030=
Bron: KNMI website
Laatste update op 13-05-2021 om 20:20
ZCZC
SA131755 EHKD     DE KOOY/DE KOOY   NLD   1 m.
METAR EHKD 131755Z AUTO 03011KT 350V060 9999 BKN010 11/08 Q1007
GRN TEMPO SCT009=
ZCZC
SA131755 EHFD     F3-FB-1   NLD   50 m.
METAR EHFD 131755Z AUTO /////KT 9999 FEW003/// SCT005/// BKN006///
08/06 Q1008=
ZCZC
SA131755 EHAM     AMSTERDAM/SCHIPHOL   NLD   -3 m.
METAR EHAM 131755Z 21012KT 180V250 7000 -SHRA FEW020 FEW030CB 13/09
Q1006 TEMPO 6000=
ZCZC
SA131755 EHVL     VLIELAND   NLD   10 m.
METAR EHVL 131755Z AUTO 02017KT 9999 SCT009 OVC260 09/06 Q1007 GRN=
ZCZC
SA131755 EHJR     K13-A   NLD   37 m.
METAR EHJR 131755Z AUTO 05018KT //// // ///////// 08/07 Q1008 RE//
W09/H8=
ZCZC
SA131755 EHLE     LELYSTAD/LELYSTAD   NLD   -3 m.
METAR EHLE 131755Z AUTO 03009KT 9999 NCD 16/08 Q1006 NOSIG=
ZCZC
SA131755 EHLW     LEEUWARDEN/LEEUWARDEN   NLD   1 m.
METAR EHLW 131755Z AUTO 03010KT 350V080 9999 SCT009 OVC010 09/07
Q1007 GRN=
ZCZC
SA131755 EHDL     ARNHEM/DEELEN   NLD   48 m.
METAR EHDL 131755Z AUTO 19012KT 130V250 9999 FEW019CB OVC030 14/09
Q1006 BLU=
ZCZC
SA131755 EHGG     GRONINGEN/EELDE   NLD   5 m.
METAR EHGG 131755Z AUTO 02007KT 330V070 9999 FEW013 10/07 Q1007 BECMG
BKN012=
ZCZC
SA131755 EHSC     LICHTEILAND GOEREE   NLD   22 m.
METAR EHSC 131755Z AUTO 31004KT 260V340 5000 BR ///////// 11/10 Q1006
W10/H6=
ZCZC
SA131755 EHSA     EURO PLATFORM   NLD   19 m.
METAR EHSA 131755Z AUTO 30004KT 5000 -RA ///////// 11/10 Q1006
W10/H7=
ZCZC
SA131755 EHWO     WOENSDRECHT/WOENSDRECHT   NLD   19 m.
METAR EHWO 131755Z AUTO 27008KT 240V300 9999 BKN110 OVC160 12/09
Q1006 BLU=
ZCZC
SA131755 EHRD     ROTTERDAM/THE HAGUE AIRPORT   NLD   -5 m.
METAR EHRD 131755Z AUTO VRB02KT 3900 RA BKN015CB 11/10 Q1006 BECMG
9999 NSW FEW015=
ZCZC
SA131755 EHGR     GILZE-RIJEN/GILZE-RIJEN   NLD   14 m.
METAR EHGR 131755Z AUTO 27005KT 240V300 9999 FEW082 SCT097 OVC110
12/10 Q1007 BLU=
ZCZC
SA131755 EHEH     EINDHOVEN/EINDHOVEN   NLD   22 m.
METAR EHEH 131755Z AUTO 27005KT 230V310 9999 FEW061 OVC150 13/10
Q1007
BLU NOSIG=
ZCZC
SA131755 EHVK     VOLKEL/VOLKEL   NLD   21 m.
METAR EHVK 131755Z AUTO 26007KT 9999 FEW015CB SCT062 OVC067 13/10
Q1006 BLU=
ZCZC
SA131755 EHBK     MAASTRICHT/MAASTRICHT-AACHEN   NLD   114 m.
METAR EHBK 131755Z AUTO 18006KT 9999 NSC 12/10 Q1007 BECMG FEW025=
ZCZC
SA131755 EHFZ     F16-A   NLD   43 m.
METAR EHFZ 131755Z NIL=
ZCZC
SA131755 EHKV     K14-FA-1C   NLD   41 m.
METAR EHKV 131755Z AUTO 04020KT 9999 SCT003 OVC004 08/06 Q1007 REDZ=
ZCZC
SA131755 EHMG     L9-FF-1   NLD   44 m.
METAR EHMG 131755Z AUTO 03013KT 9999 OVC007 08/05 Q1009=
ZCZC
SA131755 EHMA     AWG-1   NLD   40 m.
METAR EHMA 131755Z AUTO VRB09KT 9999 OVC006 08/06 Q1008=
ZCZC
SA131755 EHDV     D15-FA-1   NLD   42 m.
METAR EHDV 131755Z AUTO 01014KT 350V050 9999 FEW010/// BKN013///
OVC015/// 09/06 Q1009=
ZCZC
SA131755 EHAK     A12-CPP   NLD   48 m.
METAR EHAK 131755Z AUTO 01010KT 340V060 9999 BKN007/// OVC008///
07/05 Q1009=
ZCZC
SA131755 EHQE     HOORN-A   NLD   50 m.
METAR EHQE 131755Z AUTO 01018KT 9999 FEW004 09/07 Q1007=
ZCZC
SA131755 EHJA     J6-A   NLD   45 m.
METAR EHJA 131755Z AUTO VRB07KT 9999 FEW006/// BKN007/// OVC008///
08/06 Q1008=
ZCZC
SA131755 EHPG     P11-B   NLD   41 m.
METAR EHPG 131755Z AUTO 04022KT 9999 NSC 10/08 Q1006=
ZCZC
SA131755 EHHW     BUITENGAATS/BG-OHVS2      42 m.
METAR EHHW 131755Z AUTO 01009KT 340V040 9999 SCT003/// OVC004///
08/07 Q1007=
ZCZC
SA131755 EHFS     VLISSINGEN AWS   NLD   8 m.
METAR EHFS 131755Z AUTO 25007KT 9999 NSC 11/09 Q1007=
ZCZC
SA131755 EHSG     BSA   NLD   43 m.
METAR EHSG 131755Z AUTO 29008KT //// // FEW001/// BKN015/// BKN018///
10/09 Q1007 RE//=